createdAt,value
2018-05-10T00:01:11.722Z,97826.81
2018-05-10T00:03:39.991Z,97829.35
2018-05-10T00:06:08.271Z,97829.97
2018-05-10T00:08:36.531Z,97832.70
2018-05-10T00:11:04.858Z,97830.55
2018-05-10T00:13:33.105Z,97831.50
2018-05-10T00:16:01.378Z,97828.67
2018-05-10T00:18:29.654Z,97831.25
2018-05-10T00:20:57.947Z,97831.69
2018-05-10T00:23:26.214Z,97838.63
2018-05-10T00:25:54.488Z,97851.54
2018-05-10T00:28:22.805Z,97854.11
2018-05-10T00:30:51.047Z,97846.33
2018-05-10T00:33:19.317Z,97845.33
2018-05-10T00:35:47.711Z,97834.14
2018-05-10T00:38:15.969Z,97834.89
2018-05-10T00:40:44.343Z,97830.47
2018-05-10T00:43:12.630Z,97827.69
2018-05-10T00:45:40.898Z,97823.59
2018-05-10T00:48:09.201Z,97822.81
2018-05-10T00:50:37.457Z,97822.17
2018-05-10T00:53:05.744Z,97822.15
2018-05-10T00:55:33.999Z,97815.72
2018-05-10T00:58:02.286Z,97819.18
2018-05-10T01:00:31.347Z,97818.91
2018-05-10T01:02:59.650Z,97814.97
2018-05-10T01:05:27.949Z,97817.58
2018-05-10T01:07:56.210Z,97817.84
2018-05-10T01:10:24.487Z,97811.91
2018-05-10T01:12:52.803Z,97812.25
2018-05-10T01:15:21.054Z,97809.38
2018-05-10T01:17:49.346Z,97808.02
2018-05-10T01:20:17.609Z,97810.12
2018-05-10T01:22:45.895Z,97816.11
2018-05-10T01:25:14.155Z,97811.30
2018-05-10T01:27:42.447Z,97808.66
2018-05-10T01:30:10.725Z,97808.06
2018-05-10T01:32:39.019Z,97806.87
2018-05-10T01:35:19.546Z,97803.00
2018-05-10T01:37:47.918Z,97803.32
2018-05-10T01:40:16.307Z,97804.64
2018-05-10T01:42:44.574Z,97800.75
2018-05-10T01:45:12.861Z,97802.44
2018-05-10T01:47:41.146Z,97804.14
2018-05-10T01:50:09.457Z,97802.61
2018-05-10T01:52:37.720Z,97810.17
2018-05-10T01:55:06.030Z,97807.22
2018-05-10T01:57:34.285Z,97805.44
2018-05-10T02:00:02.589Z,97811.78
2018-05-10T02:02:30.855Z,97809.64
2018-05-10T02:04:59.893Z,97808.20
2018-05-10T02:07:28.135Z,97810.53
2018-05-10T02:09:56.560Z,97810.59
2018-05-10T02:12:24.833Z,97811.25
2018-05-10T02:14:53.181Z,97791.45
2018-05-10T02:17:22.369Z,97820.17
2018-05-10T02:19:50.747Z,97823.16
2018-05-10T02:22:19.028Z,97820.14
2018-05-10T02:24:47.316Z,97822.50
2018-05-10T02:27:15.887Z,97824.98
2018-05-10T02:29:44.205Z,97813.37
2018-05-10T02:32:12.490Z,97826.88
2018-05-10T02:34:40.769Z,97824.55
2018-05-10T02:37:09.053Z,97830.06
2018-05-10T02:39:37.319Z,97825.67
2018-05-10T02:42:05.801Z,97828.10
2018-05-10T02:44:34.087Z,97832.45
2018-05-10T02:47:02.376Z,97835.06
2018-05-10T02:49:30.647Z,97837.39
2018-05-10T02:51:58.954Z,97839.56
2018-05-10T02:54:27.209Z,97839.06
2018-05-10T02:56:55.602Z,97844.50
2018-05-10T02:59:23.811Z,97848.27
2018-05-10T03:01:52.145Z,97845.25
2018-05-10T03:04:20.430Z,97835.35
2018-05-10T03:06:48.734Z,97838.20
2018-05-10T03:09:17.022Z,97832.11
2018-05-10T03:11:45.714Z,97844.16
2018-05-10T03:14:13.974Z,97840.92
2018-05-10T03:16:42.261Z,97839.50
2018-05-10T03:19:11.550Z,97845.31
2018-05-10T03:21:39.851Z,97842.96
2018-05-10T03:24:08.110Z,97846.25
2018-05-10T03:26:36.406Z,97841.20
2018-05-10T03:29:04.706Z,97840.27
2018-05-10T03:31:33.003Z,97843.81
2018-05-10T03:34:01.274Z,97845.35
2018-05-10T03:36:29.624Z,97850.69
2018-05-10T03:38:57.925Z,97848.17
2018-05-10T03:41:26.225Z,97857.36
2018-05-10T03:43:54.524Z,97857.41
2018-05-10T03:46:22.861Z,97872.64
2018-05-10T03:48:51.126Z,97881.50
2018-05-10T03:51:19.390Z,97883.95
2018-05-10T03:53:47.888Z,97891.33
2018-05-10T03:56:16.188Z,97894.14
2018-05-10T03:58:44.524Z,97892.43
2018-05-10T04:01:12.796Z,97887.64
2018-05-10T04:04:05.585Z,97890.97
2018-05-10T04:06:45.633Z,97892.64
2018-05-10T04:09:25.771Z,97892.66
2018-05-10T04:11:54.053Z,97900.67
2018-05-10T04:14:22.341Z,97907.30
2018-05-10T04:16:50.615Z,97909.62
2018-05-10T04:19:18.902Z,97914.86
2018-05-10T04:21:47.161Z,97916.95
2018-05-10T04:24:15.527Z,97914.97
2018-05-10T04:26:43.805Z,97915.61
2018-05-10T04:29:12.165Z,97916.43
2018-05-10T04:31:41.007Z,97915.45
2018-05-10T04:34:09.302Z,97868.34
2018-05-10T04:36:37.578Z,97913.56
2018-05-10T04:39:05.890Z,97914.60
2018-05-10T04:41:34.307Z,97920.09
2018-05-10T04:44:03.225Z,97925.73
2018-05-10T04:46:31.623Z,97930.23
2018-05-10T04:49:00.119Z,97928.39
2018-05-10T04:51:29.215Z,97872.98
2018-05-10T04:53:57.509Z,97933.98
2018-05-10T04:56:25.880Z,97930.17
2018-05-10T04:58:54.098Z,97941.06
2018-05-10T05:01:22.385Z,97937.94
2018-05-10T05:03:50.682Z,97943.57
2018-05-10T05:06:19.006Z,97939.12
2018-05-10T05:08:47.376Z,97945.30
2018-05-10T05:11:15.586Z,97943.55
2018-05-10T05:13:43.838Z,97952.75
2018-05-10T05:16:12.129Z,97953.65
2018-05-10T05:18:41.214Z,97955.48
2018-05-10T05:21:09.520Z,97959.02
2018-05-10T05:23:37.831Z,97963.95
2018-05-10T05:26:06.105Z,97980.05
2018-05-10T05:28:34.423Z,97989.84
2018-05-10T05:31:02.725Z,97992.28
2018-05-10T05:33:31.038Z,97997.91
2018-05-10T05:35:59.329Z,97999.69
2018-05-10T05:38:27.626Z,98009.14
2018-05-10T05:40:55.902Z,98009.89
2018-05-10T05:43:24.304Z,98017.80
2018-05-10T05:45:52.495Z,98017.23
2018-05-10T05:48:20.830Z,98021.54
2018-05-10T05:50:49.102Z,98031.73
2018-05-10T05:53:17.856Z,98029.47
2018-05-10T05:55:46.103Z,98032.13
2018-05-10T05:58:14.391Z,98042.40
2018-05-10T06:00:42.681Z,98044.98
2018-05-10T06:03:10.986Z,98050.34
2018-05-10T06:05:39.260Z,98046.42
2018-05-10T06:08:07.549Z,98061.63
2018-05-10T06:10:35.876Z,98061.18
2018-05-10T06:13:04.285Z,98063.12
2018-05-10T06:15:32.612Z,98076.12
2018-05-10T06:18:00.979Z,98078.03
2018-05-10T06:20:29.357Z,98077.16
2018-05-10T06:22:57.613Z,98082.23
2018-05-10T06:25:25.911Z,98082.86
2018-05-10T06:27:54.323Z,98089.97
2018-05-10T06:30:22.622Z,98095.83
2018-05-10T06:32:50.993Z,98078.81
2018-05-10T06:35:19.360Z,98101.70
2018-05-10T06:37:47.627Z,98111.83
2018-05-10T06:40:15.921Z,98106.52
2018-05-10T06:42:44.246Z,98108.73
2018-05-10T06:45:12.590Z,98111.00
2018-05-10T06:50:15.581Z,98122.56
2018-05-10T06:52:43.866Z,98128.33
2018-05-10T06:55:12.175Z,98128.92
2018-05-10T06:57:40.474Z,98131.20
2018-05-10T07:00:08.780Z,98133.48
2018-05-10T07:02:37.057Z,98129.62
2018-05-10T07:05:05.367Z,98135.19
2018-05-10T07:07:33.654Z,98132.36
2018-05-10T07:10:02.042Z,98136.74
2018-05-10T07:12:30.372Z,98146.08
2018-05-10T07:14:58.820Z,98145.19
2018-05-10T07:17:27.143Z,98149.02
2018-05-10T07:19:55.415Z,98150.83
2018-05-10T07:22:23.711Z,98158.27
2018-05-10T07:24:51.991Z,98161.22
2018-05-10T07:27:20.376Z,98166.53
2018-05-10T07:29:49.075Z,98167.55
2018-05-10T07:32:18.282Z,98171.52
2018-05-10T07:34:46.606Z,98173.19
2018-05-10T07:37:14.906Z,98182.56
2018-05-10T07:39:43.318Z,98176.81
2018-05-10T07:42:12.223Z,98183.62
2018-05-10T07:44:40.535Z,98178.01
2018-05-10T07:47:08.884Z,98195.33
2018-05-10T07:49:37.143Z,98202.29
2018-05-10T07:52:05.494Z,98204.28
2018-05-10T07:54:33.796Z,98196.03
2018-05-10T07:57:02.128Z,98208.09
2018-05-10T07:59:31.293Z,98210.64
2018-05-10T08:01:59.706Z,98216.20
2018-05-10T08:04:28.127Z,98215.75
2018-05-10T08:06:56.621Z,98222.87
2018-05-10T08:09:24.893Z,98219.98
2018-05-10T08:11:53.377Z,98212.03
2018-05-10T08:14:23.271Z,98207.39
2018-05-10T08:16:51.646Z,98230.27
2018-05-10T08:19:20.419Z,98232.44
2018-05-10T08:21:48.913Z,98235.70
2018-05-10T08:24:17.368Z,98236.27
2018-05-10T08:26:45.546Z,98240.47
2018-05-10T08:29:14.256Z,98241.31
2018-05-10T08:31:42.527Z,98241.41
2018-05-10T08:34:16.660Z,98246.02
2018-05-10T08:36:45.441Z,98248.02
2018-05-10T08:39:13.751Z,98255.00
2018-05-10T08:41:46.565Z,98259.67
2018-05-10T08:44:14.917Z,98264.59
2018-05-10T08:46:44.021Z,98263.27
2018-05-10T08:49:12.373Z,98268.45
2018-05-10T08:51:41.035Z,98274.98
2018-05-10T08:54:09.496Z,98276.66
2018-05-10T08:56:38.356Z,98279.84
2018-05-10T08:59:06.656Z,98278.14
2018-05-10T09:01:35.142Z,98284.00
2018-05-10T09:04:03.514Z,98287.05
2018-05-10T09:06:31.811Z,98294.05
2018-05-10T09:09:00.465Z,98296.50
2018-05-10T09:11:28.862Z,98300.73
2018-05-10T09:13:57.231Z,98276.08
2018-05-10T09:16:25.597Z,98301.20
2018-05-10T09:18:53.947Z,98303.23
2018-05-10T09:21:22.306Z,98307.63
2018-05-10T09:23:54.440Z,98312.27
2018-05-10T09:26:22.734Z,98316.98
2018-05-10T09:28:51.107Z,98323.09
2018-05-10T09:31:19.955Z,98327.30
2018-05-10T09:33:48.431Z,98325.92
2018-05-10T09:36:17.869Z,98331.97
2018-05-10T09:38:46.131Z,98335.54
2018-05-10T09:41:14.424Z,98343.03
2018-05-10T09:43:42.710Z,98342.23
2018-05-10T09:46:11.073Z,98352.81
2018-05-10T09:48:39.311Z,98358.41
2018-05-10T09:51:07.640Z,98354.27
2018-05-10T09:53:36.871Z,98360.18
2018-05-10T09:56:05.537Z,98362.23
2018-05-10T09:58:33.859Z,98364.12
2018-05-10T10:01:02.223Z,98364.74
2018-05-10T10:03:30.582Z,98373.17
2018-05-10T10:05:58.898Z,98379.91
2018-05-10T10:08:30.683Z,98385.33
2018-05-10T10:10:58.950Z,98393.38
2018-05-10T10:13:27.267Z,98400.66
2018-05-10T10:15:55.619Z,98401.66
2018-05-10T10:18:23.934Z,98407.34
2018-05-10T10:20:52.205Z,98401.73
2018-05-10T10:23:20.575Z,98410.84
2018-05-10T10:25:48.833Z,98400.52
2018-05-10T10:28:17.159Z,98413.33
2018-05-10T10:30:45.522Z,98409.23
2018-05-10T10:33:13.808Z,98410.33
2018-05-10T10:35:42.117Z,98421.56
2018-05-10T10:38:11.233Z,98423.28
2018-05-10T10:40:39.587Z,98423.09
2018-05-10T10:43:07.876Z,98431.53
2018-05-10T10:45:36.179Z,98432.34
2018-05-10T10:48:05.060Z,98435.45
2018-05-10T10:50:33.597Z,98439.84
2018-05-10T10:53:01.881Z,98438.93
2018-05-10T10:55:30.211Z,98440.98
2018-05-10T10:57:58.474Z,98439.72
2018-05-10T11:00:26.779Z,98441.02
2018-05-10T11:02:55.099Z,98446.95
2018-05-10T11:05:23.427Z,98454.60
2018-05-10T11:07:51.708Z,98453.70
2018-05-10T11:10:20.068Z,98440.31
2018-05-10T11:12:48.906Z,98457.12
2018-05-10T11:15:18.256Z,98459.84
2018-05-10T11:17:46.565Z,98463.55
2018-05-10T11:20:14.825Z,98465.62
2018-05-10T11:22:43.330Z,98463.36
2018-05-10T11:25:11.476Z,98461.36
2018-05-10T11:27:39.785Z,98470.83
2018-05-10T11:30:08.058Z,98474.63
2018-05-10T11:32:36.504Z,98481.59
2018-05-10T11:35:04.854Z,98479.48
2018-05-10T11:37:33.183Z,98490.74
2018-05-10T11:40:01.474Z,98494.42
2018-05-10T11:42:29.786Z,98499.68
2018-05-10T11:44:58.074Z,98502.27
2018-05-10T11:47:26.393Z,98516.52
2018-05-10T11:49:55.067Z,98519.20
2018-05-10T11:52:23.363Z,98518.98
2018-05-10T11:54:51.662Z,98517.00
2018-05-10T11:57:20.024Z,98529.06
2018-05-10T11:59:48.260Z,98523.13
2018-05-10T12:02:16.593Z,98529.51
2018-05-10T12:04:45.872Z,98539.14
2018-05-10T12:07:15.010Z,98535.74
2018-05-10T12:09:47.510Z,98535.95
2018-05-10T12:12:15.846Z,98543.44
2018-05-10T12:14:44.194Z,98548.00
2018-05-10T12:17:12.501Z,98555.22
2018-05-10T12:19:40.837Z,98563.13
2018-05-10T12:22:09.099Z,98562.20
2018-05-10T12:24:37.492Z,98570.84
2018-05-10T12:27:05.771Z,98570.88
2018-05-10T12:29:34.279Z,98574.52
2018-05-10T12:32:02.856Z,98579.22
2018-05-10T12:34:31.308Z,98581.81
2018-05-10T12:36:59.683Z,98600.34
2018-05-10T12:39:28.258Z,98601.98
2018-05-10T12:41:56.576Z,98614.77
2018-05-10T12:44:24.935Z,98610.66
2018-05-10T12:46:53.239Z,98621.65
2018-05-10T13:01:42.335Z,98658.20
2018-05-10T13:04:10.640Z,98664.61
2018-05-10T13:06:38.888Z,98666.47
2018-05-10T13:09:07.187Z,98683.13
2018-05-10T13:11:35.521Z,98684.14
2018-05-10T13:14:05.208Z,98689.66
2018-05-10T13:16:34.248Z,98694.14
2018-05-10T13:19:02.624Z,98697.30
2018-05-10T13:21:30.909Z,98697.26
2018-05-10T13:23:59.304Z,98702.45
2018-05-10T13:26:27.602Z,98706.98
2018-05-10T13:28:55.877Z,98714.97
2018-05-10T13:31:24.131Z,98715.44
2018-05-10T13:33:52.614Z,98717.99
2018-05-10T13:36:20.899Z,98695.06
2018-05-10T13:38:49.199Z,98726.25
2018-05-10T13:41:17.479Z,98726.11
2018-05-10T13:43:45.743Z,98718.43
2018-05-10T13:46:14.079Z,98726.50
2018-05-10T13:48:42.338Z,98736.37
2018-05-10T13:51:10.657Z,98719.06
2018-05-10T13:53:39.043Z,98731.39
2018-05-10T13:56:08.174Z,98735.34
2018-05-10T13:58:36.434Z,98730.41
2018-05-10T14:01:04.760Z,98738.11
2018-05-10T14:03:33.047Z,98740.41
2018-05-10T14:06:01.353Z,98746.07
2018-05-10T14:08:29.625Z,98752.22
2018-05-10T14:10:58.092Z,98749.84
2018-05-10T14:13:27.150Z,98763.51
2018-05-10T14:15:55.757Z,98755.83
2018-05-10T14:18:24.235Z,98763.08
2018-05-10T14:20:52.678Z,98758.25
2018-05-10T14:23:20.973Z,98755.63
2018-05-10T14:25:49.257Z,98751.41
2018-05-10T14:28:17.581Z,98755.87
2018-05-10T14:30:45.857Z,98757.67
2018-05-10T14:33:14.183Z,98762.89
2018-05-10T14:35:42.484Z,98764.26
2018-05-10T14:38:10.787Z,98768.93
2018-05-10T14:40:39.086Z,98775.00
2018-05-10T14:43:07.667Z,98777.48
2018-05-10T14:45:35.948Z,98774.45
2018-05-10T14:48:04.245Z,98786.56
2018-05-10T14:50:32.518Z,98784.83
2018-05-10T14:53:00.907Z,98786.02
2018-05-10T14:55:29.247Z,98784.07
2018-05-10T14:57:57.554Z,98779.78
2018-05-10T15:00:25.858Z,98790.80
2018-05-10T15:02:54.114Z,98790.32
2018-05-10T15:05:22.419Z,98799.91
2018-05-10T15:07:50.730Z,98800.91
2018-05-10T15:10:19.994Z,98804.58
2018-05-10T15:12:50.772Z,98809.31
2018-05-10T15:15:19.138Z,98819.69
2018-05-10T15:17:47.374Z,98816.66
2018-05-10T15:20:16.111Z,98819.54
2018-05-10T15:22:45.123Z,98820.77
2018-05-10T15:25:13.548Z,98829.90
2018-05-10T15:27:41.794Z,98830.50
2018-05-10T15:30:10.099Z,98828.35
2018-05-10T15:32:38.349Z,98833.61
2018-05-10T15:35:06.674Z,98843.94
2018-05-10T15:37:35.011Z,98852.06
2018-05-10T15:40:03.279Z,98834.11
2018-05-10T15:42:32.746Z,98842.63
2018-05-10T15:45:01.051Z,98845.16
2018-05-10T15:47:29.310Z,98849.11
2018-05-10T15:49:57.641Z,98848.45
2018-05-10T15:52:25.991Z,98850.94
2018-05-10T15:54:54.249Z,98837.56
2018-05-10T15:57:22.534Z,98849.50
2018-05-10T15:59:51.682Z,98857.16
2018-05-10T16:02:19.973Z,98864.48
2018-05-10T16:04:48.244Z,98859.45
2018-05-10T16:07:16.806Z,98870.83
2018-05-10T16:09:45.472Z,98870.08
2018-05-10T16:12:13.897Z,98863.89
2018-05-10T16:14:42.180Z,98871.33
2018-05-10T16:17:10.505Z,98868.18
2018-05-10T16:19:38.772Z,98873.94
2018-05-10T16:22:07.131Z,98872.22
2018-05-10T16:24:35.386Z,98872.36
2018-05-10T16:27:03.683Z,98876.53
2018-05-10T16:29:31.938Z,98884.51
2018-05-10T16:32:00.250Z,98873.90
2018-05-10T16:34:28.583Z,98881.59
2018-05-10T16:36:56.874Z,98888.59
2018-05-10T16:39:25.298Z,98885.20
2018-05-10T16:41:53.554Z,98882.36
2018-05-10T16:44:21.858Z,98884.02
2018-05-10T16:46:50.160Z,98891.89
2018-05-10T16:49:18.502Z,98888.63
2018-05-10T16:51:46.780Z,98893.75
2018-05-10T16:54:16.860Z,98896.92
2018-05-10T16:56:45.360Z,98896.46
2018-05-10T16:59:13.659Z,98898.04
2018-05-10T17:01:41.921Z,98892.05
2018-05-10T17:04:10.213Z,98899.47
2018-05-10T17:06:38.490Z,98909.09
2018-05-10T17:09:06.787Z,98907.92
2018-05-10T17:11:35.646Z,98915.04
2018-05-10T17:14:03.943Z,98919.06
2018-05-10T17:16:32.810Z,98922.28
2018-05-10T17:19:01.112Z,98928.02
2018-05-10T17:21:29.448Z,98925.34
2018-05-10T17:23:57.741Z,98937.03
2018-05-10T17:26:26.143Z,98942.31
2018-05-10T17:28:54.474Z,98952.00
2018-05-10T17:31:22.877Z,98949.16
2018-05-10T17:33:51.109Z,98948.62
2018-05-10T17:36:19.426Z,98950.13
2018-05-10T17:38:47.712Z,98948.95
2018-05-10T17:41:16.063Z,98953.89
2018-05-10T17:43:44.396Z,98961.44
2018-05-10T17:46:12.680Z,98964.81
2018-05-10T17:48:42.185Z,98971.52
2018-05-10T17:51:10.599Z,98972.90
2018-05-10T17:53:38.918Z,98976.92
2018-05-10T17:56:08.004Z,98980.02
2018-05-10T17:58:36.294Z,98981.22
2018-05-10T18:01:04.698Z,98980.28
2018-05-10T18:03:32.851Z,98987.91
2018-05-10T18:06:01.355Z,98991.75
2018-05-10T18:08:29.665Z,98993.00
2018-05-10T18:10:58.607Z,99001.98
2018-05-10T18:13:26.875Z,99005.91
2018-05-10T18:15:55.148Z,99009.23
2018-05-10T18:18:23.477Z,99014.83
2018-05-10T18:20:52.676Z,99023.98
2018-05-10T18:23:21.040Z,99028.33
2018-05-10T18:25:49.242Z,98993.63
2018-05-10T18:28:17.638Z,99040.37
2018-05-10T18:30:45.908Z,99037.59
2018-05-10T18:33:14.284Z,99041.11
2018-05-10T18:35:42.552Z,99044.70
2018-05-10T18:38:10.883Z,99051.30
2018-05-10T18:40:39.311Z,99054.02
2018-05-10T18:43:07.859Z,99055.00
2018-05-10T18:45:36.125Z,99058.53
2018-05-10T18:48:04.455Z,99062.58
2018-05-10T18:50:32.763Z,99063.19
2018-05-10T18:53:01.038Z,99047.77
2018-05-10T18:55:29.418Z,99073.98
2018-05-10T18:57:57.716Z,99075.43
2018-05-10T19:00:26.029Z,99074.36
2018-05-10T19:02:54.301Z,99081.68
2018-05-10T19:05:23.396Z,99086.22
2018-05-10T19:07:51.640Z,99091.05
2018-05-10T19:10:19.962Z,99088.87
2018-05-10T19:12:48.222Z,99101.41
2018-05-10T19:15:16.621Z,99103.92
2018-05-10T19:17:44.822Z,99108.84
2018-05-10T19:20:13.114Z,99112.89
2018-05-10T19:22:41.401Z,99117.41
2018-05-10T19:25:09.708Z,99121.41
2018-05-10T19:27:39.609Z,99128.70
2018-05-10T19:30:08.145Z,99126.81
2018-05-10T19:32:36.468Z,99111.02
2018-05-10T19:35:04.771Z,99133.59
2018-05-10T19:37:33.045Z,99139.55
2018-05-10T19:40:01.344Z,99151.74
2018-05-10T19:42:29.770Z,99154.00
2018-05-10T19:44:58.133Z,99153.04
2018-05-10T19:47:26.441Z,99150.77
2018-05-10T19:49:55.557Z,99158.96
2018-05-10T19:52:23.955Z,99162.27
2018-05-10T19:54:52.239Z,99164.59
2018-05-10T19:57:20.521Z,99168.56
2018-05-10T19:59:48.820Z,99171.09
2018-05-10T20:02:17.115Z,99169.56
2018-05-10T20:04:45.401Z,99178.45
2018-05-10T20:07:13.728Z,99179.08
2018-05-10T20:09:41.990Z,99182.61
2018-05-10T20:12:11.121Z,99156.36
2018-05-10T20:14:39.472Z,99185.04
2018-05-10T20:17:07.813Z,99186.56
2018-05-10T20:19:36.102Z,99191.17
2018-05-10T20:22:09.235Z,99193.32
2018-05-10T20:24:37.513Z,99188.30
2018-05-10T20:27:05.781Z,99199.21
2018-05-10T20:29:34.090Z,99195.72
2018-05-10T20:32:02.363Z,99194.05
2018-05-10T20:34:30.662Z,99206.20
2018-05-10T20:36:58.930Z,99203.42
2018-05-10T20:39:27.225Z,99212.28
2018-05-10T20:41:55.468Z,99206.72
2018-05-10T20:44:23.767Z,99213.35
2018-05-10T20:46:52.026Z,99212.92
2018-05-10T20:49:20.451Z,99219.27
2018-05-10T20:51:48.694Z,99217.91
2018-05-10T20:54:16.975Z,99214.87
2018-05-10T20:56:45.235Z,99223.41
2018-05-10T20:59:13.517Z,99226.61
2018-05-10T21:01:41.807Z,99226.92
2018-05-10T21:04:10.315Z,99234.64
2018-05-10T21:06:38.537Z,99231.66
2018-05-10T21:09:06.830Z,99231.37
2018-05-10T21:11:35.155Z,99228.16
2018-05-10T21:14:03.533Z,99236.66
2018-05-10T21:16:31.854Z,99235.85
2018-05-10T21:19:00.243Z,99237.88
2018-05-10T21:21:28.518Z,99243.24
2018-05-10T21:23:56.783Z,99242.80
2018-05-10T21:26:25.194Z,99245.24
2018-05-10T21:28:53.459Z,99249.38
2018-05-10T21:31:22.274Z,99253.48
2018-05-10T21:33:50.596Z,99251.30
2018-05-10T21:36:18.901Z,99245.06
2018-05-10T21:38:54.522Z,99242.00
2018-05-10T21:41:23.940Z,99247.30
2018-05-10T21:43:52.208Z,99241.31
2018-05-10T21:46:21.319Z,99246.48
2018-05-10T21:48:49.603Z,99253.77
2018-05-10T21:51:17.877Z,99256.02
2018-05-10T21:53:46.221Z,99252.80
2018-05-10T21:56:14.494Z,99248.13
2018-05-10T21:58:42.773Z,99249.30
2018-05-10T22:01:11.161Z,99249.97
2018-05-10T22:03:39.439Z,99252.95
2018-05-10T22:06:07.707Z,99252.63
2018-05-10T22:08:35.982Z,99250.20
2018-05-10T22:11:04.318Z,99257.78
2018-05-10T22:13:32.640Z,99262.87
2018-05-10T22:16:00.912Z,99259.05
2018-05-10T22:18:29.247Z,99262.18
2018-05-10T22:20:57.819Z,99265.91
2018-05-10T22:23:26.114Z,99264.55
2018-05-10T22:25:54.367Z,99266.45
2018-05-10T22:28:22.647Z,99264.02
2018-05-10T22:30:50.917Z,99262.84
2018-05-10T22:33:19.305Z,99265.02
2018-05-10T22:35:47.582Z,99271.27
2018-05-10T22:38:15.873Z,99257.77
2018-05-10T22:40:44.169Z,99274.15
2018-05-10T22:43:12.592Z,99273.08
2018-05-10T22:45:40.881Z,99273.06
2018-05-10T22:48:09.219Z,99276.72
2018-05-10T22:50:37.463Z,99271.00
2018-05-10T22:53:05.730Z,99276.06
2018-05-10T22:55:34.016Z,99276.05
2018-05-10T22:58:02.279Z,99270.69
2018-05-10T23:00:30.598Z,99269.09
2018-05-10T23:02:58.851Z,99270.25
2018-05-10T23:05:33.989Z,99271.98
2018-05-10T23:08:02.246Z,99275.23
2018-05-10T23:10:31.113Z,99274.82
2018-05-10T23:12:59.498Z,99268.54
2018-05-10T23:15:28.051Z,99265.49
2018-05-10T23:17:56.317Z,99268.73
2018-05-10T23:20:24.998Z,99268.69
2018-05-10T23:22:53.250Z,99268.54
2018-05-10T23:25:21.551Z,99265.90
2018-05-10T23:27:50.845Z,99263.47
2018-05-10T23:30:19.158Z,99270.39
2018-05-10T23:32:47.429Z,99263.77
2018-05-10T23:35:15.751Z,99264.86
2018-05-10T23:37:44.095Z,99267.07
2018-05-10T23:40:12.299Z,99269.09
2018-05-10T23:42:40.610Z,99263.11
2018-05-10T23:45:09.646Z,99266.47
2018-05-10T23:47:37.948Z,99267.92
2018-05-10T23:50:06.297Z,99268.95
2018-05-10T23:52:34.659Z,99266.68
2018-05-10T23:55:02.994Z,99262.82
2018-05-10T23:57:31.348Z,99261.58
2018-05-10T23:59:59.598Z,99262.78
